Time;durP1;ratioP1;P1;durP2;ratioP2;P2;SDS_P1;SDS_P2;PMS_P1;PMS_P2;Temp;Humidity;BMP_temperature;BMP_pressure;BME280_temperature;BME280_humidity;BME280_pressure;Samples;Min_cycle;Max_cycle;Signal;HPM_P1;HPM_P2
2023/12/15 00:00:03;;;;;;;54.03;28.98;;;;;;;4.42;100.00;161724.13;5050259;28;20037;-63
2023/12/15 00:02:28;;;;;;;43.33;29.77;;;;;;;4.50;100.00;161744.28;5060492;28;20034;-63
2023/12/15 00:04:54;;;;;;;39.65;28.83;;;;;;;4.50;100.00;161742.97;5069470;28;20032;-62
2023/12/15 00:07:19;;;;;;;49.30;27.33;;;;;;;4.47;100.00;161736.19;5071047;28;20361;-63
2023/12/15 00:09:44;;;;;;;40.53;25.95;;;;;;;4.55;100.00;161756.38;5049651;28;20040;-63
2023/12/15 00:12:10;;;;;;;48.78;26.55;;;;;;;4.58;100.00;161764.44;5050891;28;20016;-63
2023/12/15 00:14:35;;;;;;;46.30;29.33;;;;;;;4.59;100.00;161767.13;5048545;28;20068;-63
2023/12/15 00:17:02;;;;;;;35.20;25.77;;;;;;;4.58;100.00;161764.44;5058937;28;20033;-62
2023/12/15 00:19:27;;;;;;;36.53;26.35;;;;;;;4.55;100.00;161756.38;5069153;28;20090;-62
2023/12/15 00:21:53;;;;;;;45.20;27.35;;;;;;;4.58;100.00;161764.44;5054823;28;20028;-63
2023/12/15 00:24:18;;;;;;;43.75;28.00;;;;;;;4.65;100.00;161783.28;5049289;28;20488;-63
2023/12/15 00:26:43;;;;;;;47.70;29.45;;;;;;;4.68;100.00;161791.34;5050428;28;20032;-64
2023/12/15 00:29:09;;;;;;;42.28;26.10;;;;;;;4.69;100.00;161794.03;5050258;28;20033;-64
2023/12/15 00:31:35;;;;;;;37.17;28.48;;;;;;;4.73;100.00;161803.44;5070583;28;20828;-63
2023/12/15 00:34:00;;;;;;;34.70;24.13;;;;;;;4.70;100.00;161796.72;5069254;28;20074;-64
2023/12/15 00:36:26;;;;;;;36.08;26.88;;;;;;;4.73;100.00;161804.75;5069911;28;20045;-63
2023/12/15 00:38:52;;;;;;;40.00;25.13;;;;;;;4.72;100.00;161802.13;5068355;28;20024;-64
2023/12/15 00:41:18;;;;;;;42.85;26.85;;;;;;;4.75;100.00;161808.84;5062934;28;20112;-64
2023/12/15 00:43:43;;;;;;;35.83;24.25;;;;;;;4.76;100.00;161812.84;5049821;28;20023;-64
2023/12/15 00:46:08;;;;;;;39.10;23.52;;;;;;;4.73;100.00;161804.75;5048403;28;20407;-64
2023/12/15 00:48:34;;;;;;;38.35;25.90;;;;;;;4.81;100.00;161823.59;5049086;28;20037;-63
2023/12/15 00:50:59;;;;;;;47.50;30.30;;;;;;;4.82;100.00;161826.28;5048297;28;20408;-64
2023/12/15 00:53:25;;;;;;;41.35;26.55;;;;;;;4.81;100.00;161824.97;5049589;28;20025;-64
2023/12/15 00:55:50;;;;;;;47.35;29.77;;;;;;;4.85;100.00;161834.38;5050596;28;20036;-64
2023/12/15 00:58:16;;;;;;;42.90;24.73;;;;;;;4.83;100.00;161828.97;5069435;28;20072;-64
2023/12/15 01:00:41;;;;;;;37.80;26.50;;;;;;;4.84;100.00;161831.69;5068024;28;20033;-64
2023/12/15 01:03:07;;;;;;;37.58;28.30;;;;;;;4.85;100.00;161834.38;5069097;28;20353;-64
2023/12/15 01:05:32;;;;;;;53.63;30.92;;;;;;;4.89;100.00;161845.09;5050295;28;20144;-64
2023/12/15 01:07:58;;;;;;;46.97;27.80;;;;;;;4.90;100.00;161847.81;5049264;28;20036;-64
2023/12/15 01:10:23;;;;;;;43.58;27.52;;;;;;;4.89;100.00;161846.47;5047236;28;20041;-64
2023/12/15 01:12:48;;;;;;;47.78;31.58;;;;;;;4.92;100.00;161853.19;5049448;28;20470;-64
2023/12/15 01:15:14;;;;;;;42.88;30.30;;;;;;;4.92;100.00;161853.19;5047938;28;20060;-64
2023/12/15 01:17:40;;;;;;;44.97;29.73;;;;;;;4.91;100.00;161850.50;5048892;28;20495;-62
2023/12/15 01:20:06;;;;;;;43.80;26.17;;;;;;;4.95;100.00;161861.28;5047879;28;20045;-63
2023/12/15 01:22:31;;;;;;;43.15;30.23;;;;;;;4.87;100.00;161839.78;5048702;28;20067;-61
2023/12/15 01:24:57;;;;;;;45.85;26.92;;;;;;;4.94;100.00;161858.59;5059543;28;20045;-64
2023/12/15 01:27:23;;;;;;;45.05;28.95;;;;;;;4.91;100.00;161850.50;5068243;28;20086;-63
2023/12/15 01:29:48;;;;;;;49.95;30.55;;;;;;;4.98;100.00;161869.31;5047819;28;20037;-63
2023/12/15 01:32:14;;;;;;;46.90;31.30;;;;;;;4.99;100.00;161872.03;5048820;28;20392;-63
2023/12/15 01:34:39;;;;;;;50.58;30.63;;;;;;;5.00;100.00;161874.72;5047523;28;20102;-63
2023/12/15 01:37:04;;;;;;;43.33;30.83;;;;;;;5.06;100.00;161889.53;5011954;28;1067234;-63
2023/12/15 01:39:30;;;;;;;49.65;31.63;;;;;;;5.06;100.00;161890.84;5046636;28;20052;-64
2023/12/15 01:41:55;;;;;;;54.88;34.03;;;;;;;5.07;100.00;161892.16;5050127;28;20029;-64
2023/12/15 01:44:20;;;;;;;51.80;32.28;;;;;;;5.03;100.00;161882.75;5048191;28;20033;-64
2023/12/15 01:46:46;;;;;;;55.25;31.80;;;;;;;5.01;100.00;161876.03;5049496;28;20028;-63
2023/12/15 01:49:12;;;;;;;49.30;33.22;;;;;;;5.04;100.00;161778.72;5048453;28;20358;-63
2023/12/15 01:51:38;;;;;;;52.90;33.38;;;;;;;5.02;100.00;160490.16;5061457;28;20025;-63
2023/12/15 01:54:03;;;;;;;49.65;32.15;;;;;;;5.07;100.00;160008.28;5068177;28;20518;-63
2023/12/15 01:56:28;;;;;;;52.72;32.25;;;;;;;5.06;100.00;159004.53;5067834;28;20464;-63
2023/12/15 01:58:54;;;;;;;51.13;32.70;;;;;;;5.13;100.00;158060.41;5055133;28;20098;-64
2023/12/15 02:01:19;;;;;;;55.72;30.42;;;;;;;5.12;100.00;158186.31;5049292;28;20040;-65
2023/12/15 02:03:44;;;;;;;48.83;34.67;;;;;;;5.04;100.00;158106.47;5049237;28;20025;-65
2023/12/15 02:06:10;;;;;;;64.90;37.80;;;;;;;5.08;100.00;157984.31;5058208;28;20040;-64
2023/12/15 02:08:35;;;;;;;50.38;32.78;;;;;;;5.15;100.00;156548.22;5069078;28;20029;-64
2023/12/15 02:11:00;;;;;;;60.42;34.72;;;;;;;5.16;100.00;155834.66;5067735;28;20458;-63
2023/12/15 02:13:26;;;;;;;56.55;35.55;;;;;;;5.16;100.00;155982.25;5069340;28;20035;-64
2023/12/15 02:15:51;;;;;;;57.05;35.47;;;;;;;5.20;100.00;156014.44;5060840;28;20545;-64
2023/12/15 02:18:17;;;;;;;48.50;34.97;;;;;;;5.22;100.00;156372.28;5052091;28;20032;-63
2023/12/15 02:20:42;;;;;;;55.72;34.67;;;;;;;5.26;100.00;157153.72;5067250;28;20036;-63
2023/12/15 02:23:07;;;;;;;57.58;37.92;;;;;;;5.23;100.00;158269.91;5049223;28;20040;-63
2023/12/15 02:25:33;;;;;;;53.08;33.15;;;;;;;5.26;100.00;158854.97;5047421;28;20064;-64
2023/12/15 02:27:58;;;;;;;51.05;36.67;;;;;;;5.27;100.00;159549.78;5049647;28;20029;-63
2023/12/15 02:30:24;;;;;;;67.28;39.63;;;;;;;5.29;100.00;159850.63;5047770;28;20033;-63
2023/12/15 02:32:49;;;;;;;62.33;40.08;;;;;;;5.25;100.00;160414.66;5059871;28;20081;-63
2023/12/15 02:35:16;;;;;;;51.45;35.97;;;;;;;5.31;100.00;160430.69;5062519;28;20075;-63
2023/12/15 02:37:42;;;;;;;62.38;38.85;;;;;;;5.30;100.00;160753.72;5051368;28;20134;-64
2023/12/15 02:40:07;;;;;;;68.15;40.45;;;;;;;5.32;100.00;160623.59;5051047;28;20049;-64
2023/12/15 02:42:33;;;;;;;62.72;40.70;;;;;;;5.30;100.00;160116.00;5052756;28;20024;-63
2023/12/15 02:45:01;;;;;;;72.13;42.70;;;;;;;5.31;100.00;159516.63;5051450;28;20076;-64
2023/12/15 02:47:26;;;;;;;70.03;42.25;;;;;;;5.35;100.00;158487.47;5067121;28;20089;-64
2023/12/15 02:49:54;;;;;;;77.25;45.55;;;;;;;5.34;100.00;157921.28;5071269;28;20036;-63
2023/12/15 02:52:19;;;;;;;59.55;38.03;;;;;;;5.33;100.00;157305.97;5072722;28;20024;-63
2023/12/15 02:54:45;;;;;;;67.35;41.15;;;;;;;5.32;100.00;156461.13;5070770;28;20385;-64
2023/12/15 02:57:10;;;;;;;67.25;43.03;;;;;;;5.33;100.00;154571.91;5072939;28;20024;-64
2023/12/15 02:59:36;;;;;;;73.32;47.88;;;;;;;5.39;100.00;152876.53;5070935;28;20518;-64
2023/12/15 03:02:01;;;;;;;76.68;44.70;;;;;;;5.45;100.00;151140.72;5071537;28;20029;-63
2023/12/15 03:04:26;;;;;;;78.00;45.75;;;;;;;5.41;100.00;150782.34;5055956;28;20404;-64
2023/12/15 03:06:54;;;;;;;77.25;43.97;;;;;;;5.38;100.00;150077.06;5052394;28;20353;-66
2023/12/15 03:09:19;;;;;;;76.53;43.78;;;;;;;5.42;100.00;150084.50;5050189;28;20092;-64
2023/12/15 03:11:44;;;;;;;93.35;46.60;;;;;;;5.44;100.00;149041.03;5052603;28;20032;-64
2023/12/15 03:14:10;;;;;;;87.82;48.85;;;;;;;5.46;100.00;148347.13;5063688;28;20379;-64
2023/12/15 03:16:35;;;;;;;92.28;50.13;;;;;;;5.48;100.00;147653.25;5071733;28;20016;-63
2023/12/15 03:19:01;;;;;;;93.30;51.17;;;;;;;5.49;100.00;147307.63;5070808;28;20032;-64
2023/12/15 03:21:26;;;;;;;98.70;49.42;;;;;;;5.57;100.00;146627.22;5071932;28;20077;-63
2023/12/15 03:23:52;;;;;;;101.07;52.67;;;;;;;5.53;100.00;147316.16;5070328;28;20024;-64
2023/12/15 03:26:17;;;;;;;89.78;48.97;;;;;;;5.51;100.00;147661.81;5071620;28;20387;-64
2023/12/15 03:28:42;;;;;;;89.68;49.70;;;;;;;5.50;100.00;147658.16;5071662;28;20033;-63
2023/12/15 03:31:08;;;;;;;111.82;54.13;;;;;;;5.51;100.00;146961.94;5066583;28;20036;-64
2023/12/15 03:33:35;;;;;;;97.35;51.13;;;;;;;5.57;100.00;145579.41;5051814;28;20020;-64
2023/12/15 03:36:01;;;;;;;98.28;51.00;;;;;;;5.48;100.00;145209.78;5050273;28;20040;-63
2023/12/15 03:38:26;;;;;;;105.55;55.13;;;;;;;-146.58;100.00;69501.63;5051277;28;20348;-63
2023/12/15 03:40:52;;;;;;;98.50;52.35;;;;;;;-146.58;100.00;69501.63;5050545;28;20090;-63
2023/12/15 03:43:17;;;;;;;106.60;55.03;;;;;;;-146.58;100.00;69501.63;5051471;28;20032;-63
2023/12/15 03:45:42;;;;;;;109.35;52.50;;;;;;;-146.58;100.00;69501.63;5049895;28;20064;-63
2023/12/15 03:48:08;;;;;;;111.88;54.40;;;;;;;-146.58;100.00;69501.63;5050568;28;20029;-63
2023/12/15 03:50:33;;;;;;;125.13;59.60;;;;;;;-146.58;100.00;69501.63;5049909;28;20032;-62
2023/12/15 03:52:59;;;;;;;103.93;56.22;;;;;;;-146.58;100.00;69501.63;5051146;28;20050;-63
2023/12/15 03:55:24;;;;;;;96.10;56.03;;;;;;;-146.58;100.00;69501.63;5049771;28;20033;-63
2023/12/15 03:57:49;;;;;;;101.10;53.92;;;;;;;-146.58;100.00;69501.63;5051375;28;20029;-63
2023/12/15 04:00:16;;;;;;;104.78;58.22;;;;;;;-146.58;100.00;69501.63;5048959;28;20099;-63
2023/12/15 04:02:42;;;;;;;110.20;57.88;;;;;;;-146.58;100.00;69501.63;5051447;28;20032;-63
2023/12/15 04:05:07;;;;;;;125.97;64.68;;;;;;;-146.58;100.00;69501.63;5065822;28;20048;-63
2023/12/15 04:07:33;;;;;;;112.30;57.22;;;;;;;-146.58;100.00;69501.63;5051722;28;20503;-63
2023/12/15 04:09:58;;;;;;;110.53;55.67;;;;;;;-146.58;100.00;69501.63;5049944;28;20102;-63
2023/12/15 04:12:24;;;;;;;131.18;58.88;;;;;;;-146.58;100.00;69501.63;5050914;28;20111;-63
2023/12/15 04:14:50;;;;;;;103.72;56.70;;;;;;;-146.58;100.00;69501.63;5049145;28;20060;-63
2023/12/15 04:17:15;;;;;;;123.70;59.05;;;;;;;-146.58;100.00;69501.63;5051094;28;20032;-63
2023/12/15 04:19:41;;;;;;;122.38;56.38;;;;;;;-146.58;100.00;69501.63;5049641;28;20040;-63
2023/12/15 04:22:06;;;;;;;111.93;58.42;;;;;;;-146.58;100.00;69501.63;5050596;28;20491;-63
2023/12/15 04:24:31;;;;;;;124.15;57.53;;;;;;;-146.58;100.00;69501.63;5049154;28;20040;-61
2023/12/15 04:26:57;;;;;;;129.13;61.22;;;;;;;-146.58;100.00;69501.63;5050616;28;20063;-63
2023/12/15 04:29:23;;;;;;;110.88;54.95;;;;;;;-146.58;100.00;69501.63;5049195;28;20649;-63
2023/12/15 04:31:48;;;;;;;138.90;65.35;;;;;;;-146.58;100.00;69501.63;5050455;28;20391;-63
2023/12/15 04:34:14;;;;;;;116.85;62.47;;;;;;;-146.58;100.00;69501.63;5049568;28;20032;-63
2023/12/15 04:36:39;;;;;;;117.72;56.28;;;;;;;-146.58;100.00;69501.63;5056781;28;20411;-62
2023/12/15 04:39:05;;;;;;;126.72;57.30;;;;;;;-146.58;100.00;69501.63;5068520;28;20032;-63
2023/12/15 04:41:31;;;;;;;119.63;61.42;;;;;;;-146.58;100.00;69501.63;5070202;28;20036;-64
2023/12/15 04:43:56;;;;;;;140.40;66.93;;;;;;;-146.58;100.00;69501.63;5069252;28;20039;-64
2023/12/15 04:46:29;;;;;;;122.45;56.50;;;;;;;-146.58;100.00;69501.63;5069949;28;20379;-64
2023/12/15 04:48:57;;;;;;;151.20;64.90;;;;;;;-146.58;100.00;69501.63;5069094;28;20063;-64
2023/12/15 04:51:22;;;;;;;141.23;62.95;;;;;;;-146.58;100.00;69501.63;5070391;28;20086;-64
2023/12/15 04:53:48;;;;;;;148.45;60.55;;;;;;;-146.58;100.00;69501.63;5068498;28;20395;-64
2023/12/15 04:56:14;;;;;;;150.70;63.63;;;;;;;-146.58;100.00;69501.63;5048695;28;20037;-64
2023/12/15 04:58:40;;;;;;;146.93;60.40;;;;;;;-146.58;100.00;69501.63;5050169;28;20051;-64
2023/12/15 05:01:09;;;;;;;144.68;62.30;;;;;;;-146.58;100.00;69501.63;5048012;28;20057;-64
2023/12/15 05:03:35;;;;;;;160.60;64.03;;;;;;;-146.58;100.00;69501.63;5050227;28;20039;-64
2023/12/15 05:06:00;;;;;;;147.95;65.38;;;;;;;-146.58;100.00;69501.63;5068725;28;20464;-64
2023/12/15 05:08:25;;;;;;;153.57;64.35;;;;;;;-146.58;100.00;69501.63;5069323;28;20029;-64
2023/12/15 05:10:51;;;;;;;145.73;59.45;;;;;;;-146.58;100.00;69501.63;5066672;28;20056;-64
2023/12/15 05:13:16;;;;;;;161.77;63.92;;;;;;;-146.58;100.00;69501.63;5049173;28;20013;-63
2023/12/15 05:15:42;;;;;;;146.52;63.67;;;;;;;-146.58;100.00;69501.63;5047967;28;20582;-63
2023/12/15 05:18:07;;;;;;;145.35;61.63;;;;;;;-146.58;100.00;69501.63;5053697;28;20033;-63
2023/12/15 05:20:36;;;;;;;151.48;63.45;;;;;;;-146.58;100.00;69501.63;5047802;28;20033;-63
2023/12/15 05:23:03;;;;;;;177.30;62.33;;;;;;;-146.58;100.00;69501.63;5049427;28;20655;-63
2023/12/15 05:25:28;;;;;;;158.60;65.63;;;;;;;-146.58;100.00;69501.63;5048036;28;20071;-63
2023/12/15 05:27:53;;;;;;;177.02;72.18;;;;;;;-146.58;100.00;69501.63;5050256;28;20518;-63
2023/12/15 05:30:19;;;;;;;156.20;63.00;;;;;;;-146.58;100.00;69501.63;5047937;28;20037;-62
2023/12/15 05:32:44;;;;;;;158.18;58.50;;;;;;;-146.58;100.00;69501.63;5049991;28;20029;-63
2023/12/15 05:35:09;;;;;;;151.23;66.18;;;;;;;-146.58;100.00;69501.63;5048203;28;20044;-63
2023/12/15 05:37:35;;;;;;;177.25;64.20;;;;;;;-146.58;100.00;69501.63;5046571;28;20056;-63
2023/12/15 05:40:00;;;;;;;168.57;67.68;;;;;;;6.01;100.00;122681.53;5047223;28;20041;-63
2023/12/15 05:42:25;;;;;;;151.38;61.47;;;;;;;6.00;100.00;121289.63;5048788;28;20795;-63
2023/12/15 05:44:51;;;;;;;146.63;60.10;;;;;;;6.02;100.00;119904.19;5046376;28;20037;-62
2023/12/15 05:47:17;;;;;;;151.25;59.50;;;;;;;6.07;100.00;118870.22;5064837;28;20024;-62
2023/12/15 05:49:42;;;;;;;160.55;62.72;;;;;;;6.11;100.00;117489.19;5067479;28;20037;-63
2023/12/15 05:52:09;;;;;;;140.40;57.88;;;;;;;6.08;100.00;116789.19;5066828;28;20042;-63
2023/12/15 05:54:35;;;;;;;159.73;64.57;;;;;;;6.09;100.00;116097.03;5067350;28;20146;-62
2023/12/15 05:57:00;;;;;;;156.40;63.35;;;;;;;6.10;100.00;115405.91;5035478;28;20095;-63
2023/12/15 05:59:26;;;;;;;143.77;57.78;;;;;;;6.09;100.00;114015.47;5030003;28;20563;-62
2023/12/15 06:01:51;;;;;;;132.95;52.40;;;;;;;6.17;100.00;113337.66;5048544;28;20476;-62
2023/12/15 06:04:17;;;;;;;134.18;57.88;;;;;;;6.19;100.00;112646.81;5043340;28;20040;-62
2023/12/15 06:06:42;;;;;;;163.70;67.88;;;;;;;6.15;100.00;112639.41;5046973;28;20033;-62
2023/12/15 06:09:09;;;;;;;151.48;58.13;;;;;;;6.22;100.00;112305.56;5046390;28;20083;-62
2023/12/15 06:11:41;;;;;;;153.82;61.95;;;;;;;6.23;100.00;112307.41;5049230;28;20045;-62
2023/12/15 06:14:07;;;;;;;126.82;53.45;;;;;;;6.19;100.00;112646.81;5053360;28;20028;-61
2023/12/15 06:16:33;;;;;;;149.50;58.50;;;;;;;6.17;100.00;112989.91;5070985;28;20029;-61
2023/12/15 06:18:58;;;;;;;148.68;58.38;;;;;;;6.17;100.00;113336.72;5071314;28;20028;-61
2023/12/15 06:21:25;;;;;;;140.13;58.60;;;;;;;6.16;100.00;112988.97;5070470;28;20028;-61
2023/12/15 06:23:52;;;;;;;160.90;60.20;;;;;;;6.14;100.00;112637.59;5050292;28;20021;-60
2023/12/15 06:26:19;;;;;;;132.95;55.05;;;;;;;6.13;100.00;112289.00;5052783;28;20029;-62
2023/12/15 06:28:44;;;;;;;130.98;57.88;;;;;;;6.15;100.00;111945.94;5051896;28;20035;-62
2023/12/15 06:31:10;;;;;;;160.82;63.13;;;;;;;6.15;100.00;111252.63;5068135;28;20037;-63
2023/12/15 06:33:35;;;;;;;153.10;63.17;;;;;;;6.13;100.00;111249.00;5054351;28;20054;-63
2023/12/15 06:36:00;;;;;;;141.40;58.85;;;;;;;6.14;100.00;110558.50;5050007;28;20171;-60
2023/12/15 06:38:26;;;;;;;144.40;57.85;;;;;;;6.20;100.00;109528.78;5051346;28;20032;-59
2023/12/15 06:40:51;;;;;;;140.23;63.75;;;;;;;6.20;100.00;108835.78;5051007;28;20048;-59
2023/12/15 06:43:16;;;;;;;122.45;56.33;;;;;;;6.18;100.00;108485.78;5053146;28;20029;-59
2023/12/15 06:45:42;;;;;;;144.43;61.17;;;;;;;6.20;100.00;108489.34;5050009;28;20407;-59
2023/12/15 06:48:07;;;;;;;138.48;55.20;;;;;;;6.21;100.00;107798.31;5051911;28;20029;-59
2023/12/15 06:50:32;;;;;;;135.27;59.63;;;;;;;6.24;100.00;107457.22;5050203;28;20048;-59
2023/12/15 06:52:58;;;;;;;135.32;55.15;;;;;;;6.24;100.00;107110.84;5051357;28;20021;-59
2023/12/15 06:55:23;;;;;;;132.77;50.15;;;;;;;6.21;100.00;107104.72;5057926;28;20564;-59
2023/12/15 06:57:48;;;;;;;135.57;56.03;;;;;;;6.24;100.00;106764.53;5071457;28;20028;-59
2023/12/15 07:00:14;;;;;;;126.25;53.00;;;;;;;6.26;100.00;106421.72;5069769;28;20047;-59
2023/12/15 07:02:39;;;;;;;138.95;55.58;;;;;;;6.30;100.00;106082.38;5051621;28;20028;-59
2023/12/15 07:05:05;;;;;;;123.18;54.72;;;;;;;6.27;100.00;106423.47;5050112;28;20099;-59
2023/12/15 07:07:31;;;;;;;126.32;53.28;;;;;;;6.27;100.00;107115.22;5051234;28;20029;-59
2023/12/15 07:09:56;;;;;;;118.55;54.30;;;;;;;6.22;100.00;108146.44;5050392;28;20041;-59
2023/12/15 07:12:21;;;;;;;129.82;53.72;;;;;;;6.16;100.00;109521.59;5051283;28;20029;-59
2023/12/15 07:14:47;;;;;;;134.63;60.40;;;;;;;6.11;100.00;110898.75;5049417;28;20051;-59
2023/12/15 07:17:12;;;;;;;134.43;52.55;;;;;;;6.13;100.00;111596.53;5051367;28;20368;-59
2023/12/15 07:19:37;;;;;;;115.03;49.88;;;;;;;6.13;100.00;112289.91;5035179;28;20057;-60
2023/12/15 07:22:03;;;;;;;132.18;55.28;;;;;;;6.11;100.00;112979.69;5041831;28;20029;-59
2023/12/15 07:24:29;;;;;;;128.00;54.55;;;;;;;6.14;100.00;113678.91;5049793;28;20045;-59
2023/12/15 07:26:54;;;;;;;128.15;49.95;;;;;;;6.16;100.00;114375.44;5051493;28;20044;-59
2023/12/15 07:29:21;;;;;;;124.22;58.42;;;;;;;6.02;100.00;115737.69;5048317;28;20048;-60
2023/12/15 07:31:48;;;;;;;132.05;54.95;;;;;;;6.09;100.00;117485.31;5051361;28;20013;-59
2023/12/15 07:34:13;;;;;;;131.23;59.88;;;;;;;6.09;100.00;118179.66;5050212;28;20038;-59
2023/12/15 07:36:39;;;;;;;115.90;52.88;;;;;;;6.16;100.00;118887.78;5045326;28;20056;-59
2023/12/15 07:39:04;;;;;;;118.70;52.83;;;;;;;6.19;100.00;119935.72;5035714;28;20392;-59
2023/12/15 07:41:29;;;;;;;102.97;53.00;;;;;;;6.18;100.00;122019.63;5050375;28;20399;-59
2023/12/15 07:43:55;;;;;;;117.50;52.75;;;;;;;6.14;100.00;124096.44;5049495;28;20028;-60
2023/12/15 07:46:20;;;;;;;115.78;53.95;;;;;;;6.17;100.00;126537.44;5030936;28;20032;-59
2023/12/15 07:48:46;;;;;;;124.03;57.25;;;;;;;6.14;100.00;128967.47;5030144;28;20027;-58
2023/12/15 07:51:21;;;;;;;132.20;55.60;;;;;;;6.09;100.00;131394.28;5047416;28;20067;-58
2023/12/15 07:53:47;;;;;;;127.28;54.03;;;;;;;6.10;100.00;132093.16;5050110;28;20048;-58
2023/12/15 07:56:24;;;;;;;115.55;58.03;;;;;;;6.11;100.00;132443.75;5050116;28;20529;-58
2023/12/15 07:58:50;;;;;;;125.82;56.15;;;;;;;6.15;100.00;132105.16;5050472;28;20538;-58
2023/12/15 08:01:20;;;;;;;128.52;55.80;;;;;;;6.16;100.00;132106.22;5049495;28;20059;-58
2023/12/15 08:03:46;;;;;;;107.40;49.78;;;;;;;6.22;100.00;131074.06;5051003;28;20036;-58
2023/12/15 08:06:13;;;;;;;125.00;53.13;;;;;;;6.26;100.00;130734.34;5049296;28;20584;-58
2023/12/15 08:08:39;;;;;;;116.93;52.17;;;;;;;6.31;100.00;129700.09;5050635;28;20664;-58
2023/12/15 08:11:05;;;;;;;103.07;49.60;;;;;;;6.26;100.00;129689.41;5049414;28;20500;-58
2023/12/15 08:13:30;;;;;;;115.03;57.70;;;;;;;6.39;100.00;127973.72;5050245;28;20048;-58
2023/12/15 08:15:56;;;;;;;117.35;54.10;;;;;;;6.43;100.00;126937.66;5049212;28;20067;-58
2023/12/15 08:18:21;;;;;;;121.45;49.05;;;;;;;6.40;100.00;126235.22;5049281;28;20448;-58
2023/12/15 08:20:47;;;;;;;97.38;47.40;;;;;;;6.50;100.00;126256.00;5045734;28;20037;-58
2023/12/15 08:23:13;;;;;;;103.93;48.30;;;;;;;6.55;100.00;126265.34;5049919;28;20376;-58
2023/12/15 08:25:38;;;;;;;98.85;50.50;;;;;;;6.51;100.00;127651.81;5048992;28;20056;-58
2023/12/15 08:28:04;;;;;;;95.13;45.95;;;;;;;6.55;100.00;128354.69;5049703;28;20036;-58
2023/12/15 08:30:29;;;;;;;99.45;50.78;;;;;;;6.51;100.00;129393.34;5047778;28;20044;-58
2023/12/15 08:32:55;;;;;;;94.25;50.75;;;;;;;6.56;100.00;129054.56;5050806;28;20101;-58
2023/12/15 08:35:20;;;;;;;109.40;51.17;;;;;;;6.57;100.00;129405.09;5047286;28;20496;-58
2023/12/15 08:37:46;;;;;;;99.53;49.67;;;;;;;6.59;100.00;129408.28;5049180;28;20048;-58
2023/12/15 08:40:11;;;;;;;97.35;45.25;;;;;;;6.60;100.00;128714.66;5048086;28;20037;-58
2023/12/15 08:42:37;;;;;;;102.65;46.35;;;;;;;6.63;100.00;128721.03;5049043;28;20372;-58
2023/12/15 08:45:02;;;;;;;106.13;44.28;;;;;;;6.74;100.00;128743.28;5048021;28;20408;-58
2023/12/15 08:47:28;;;;;;;102.10;52.63;;;;;;;6.74;100.00;129439.19;5049167;28;20037;-58
2023/12/15 08:49:53;;;;;;;84.30;48.30;;;;;;;6.71;100.00;130827.00;5048187;28;20032;-58
2023/12/15 08:52:18;;;;;;;91.35;50.22;;;;;;;6.71;100.00;131175.63;5029840;28;20026;-59
2023/12/15 08:54:44;;;;;;;121.97;51.83;;;;;;;6.78;100.00;130842.06;5028936;28;20145;-58
2023/12/15 08:57:10;;;;;;;90.25;49.15;;;;;;;6.85;100.00;130159.81;5029679;28;20032;-58
2023/12/15 08:59:35;;;;;;;93.63;46.70;;;;;;;6.80;100.00;130498.81;5028512;28;20060;-58
2023/12/15 09:02:00;;;;;;;86.10;49.35;;;;;;;6.85;100.00;130159.81;5030070;28;20373;-58
2023/12/15 09:04:26;;;;;;;95.93;45.35;;;;;;;6.93;100.00;129479.66;5032948;28;20040;-58
2023/12/15 09:06:51;;;;;;;104.47;50.53;;;;;;;6.97;100.00;129139.53;5049917;28;20025;-58
2023/12/15 09:09:16;;;;;;;89.82;46.78;;;;;;;7.03;100.00;129150.19;5046240;28;20041;-58
2023/12/15 09:11:42;;;;;;;84.10;43.25;;;;;;;7.02;100.00;129496.72;5029765;28;20017;-58
2023/12/15 09:14:07;;;;;;;92.25;51.17;;;;;;;6.96;100.00;130531.03;5028527;28;20021;-59
2023/12/15 09:16:33;;;;;;;93.53;52.85;;;;;;;7.04;100.00;130198.38;5029779;28;20037;-58
2023/12/15 09:18:58;;;;;;;98.40;49.05;;;;;;;7.12;100.00;129867.84;5040508;28;20515;-58
2023/12/15 09:21:23;;;;;;;87.25;48.22;;;;;;;7.07;100.00;130204.84;5049055;28;20435;-58
2023/12/15 09:23:49;;;;;;;90.38;47.03;;;;;;;7.11;100.00;129864.66;5049075;28;20060;-58
2023/12/15 09:26:14;;;;;;;106.18;48.88;;;;;;;7.17;100.00;129528.69;5047707;28;20519;-58
2023/12/15 09:28:39;;;;;;;84.75;53.10;;;;;;;7.23;100.00;129192.72;5048646;28;20020;-58
2023/12/15 09:31:05;;;;;;;87.53;45.63;;;;;;;7.30;100.00;128510.03;5029442;28;20526;-58
2023/12/15 09:33:30;;;;;;;99.22;51.15;;;;;;;7.29;100.00;129205.44;5028866;28;20025;-58
2023/12/15 09:35:56;;;;;;;102.85;50.03;;;;;;;7.43;100.00;130977.84;5027868;28;20037;-57
2023/12/15 09:38:21;;;;;;;89.13;49.03;;;;;;;7.52;100.00;132043.56;5029585;28;20477;-58
2023/12/15 09:40:47;;;;;;;96.45;50.53;;;;;;;7.62;100.00;133811.78;5024917;28;20061;-59
2023/12/15 09:43:13;;;;;;;91.95;49.28;;;;;;;7.59;100.00;137301.31;5029011;28;20540;-58
2023/12/15 09:45:39;;;;;;;85.15;48.42;;;;;;;7.59;100.00;140449.41;5027568;28;20122;-59
2023/12/15 09:48:06;;;;;;;92.95;49.25;;;;;;;7.54;100.00;146038.66;5032198;28;20021;-59
2023/12/15 09:50:33;;;;;;;79.25;45.00;;;;;;;7.61;100.00;148859.72;5030878;28;20115;-59
2023/12/15 09:53:02;;;;;;;70.93;46.80;;;;;;;7.66;100.00;151677.09;5033627;28;20032;-59
2023/12/15 09:55:30;;;;;;;79.32;43.72;;;;;;;7.62;100.00;155629.91;5030850;28;20095;-59
2023/12/15 09:57:57;;;;;;;76.13;41.75;;;;;;;7.62;100.00;158409.09;5033602;28;20114;-59
2023/12/15 10:00:23;;;;;;;85.63;44.13;;;;;;;7.67;100.00;160456.13;5043250;28;20040;-58
2023/12/15 10:02:48;;;;;;;82.68;44.28;;;;;;;7.72;100.00;161903.88;5052382;28;20032;-59
2023/12/15 10:05:14;;;;;;;75.45;38.35;;;;;;;7.75;100.00;162590.88;5051577;28;20051;-59
2023/12/15 10:07:40;;;;;;;78.38;40.00;;;;;;;7.81;100.00;162605.72;5052816;28;20025;-59
2023/12/15 10:10:05;;;;;;;68.13;43.05;;;;;;;7.88;100.00;162625.91;5051454;28;20553;-59
2023/12/15 10:12:31;;;;;;;75.22;38.15;;;;;;;7.90;100.00;162629.94;5052839;28;20025;-59
2023/12/15 10:14:56;;;;;;;78.10;41.45;;;;;;;7.84;100.00;162615.16;5051965;28;20037;-59
2023/12/15 10:17:22;;;;;;;63.05;35.95;;;;;;;7.86;100.00;162620.50;5052209;28;20139;-59
2023/12/15 10:19:47;;;;;;;69.72;38.55;;;;;;;7.90;100.00;162631.31;5050427;28;20487;-59
2023/12/15 10:22:13;;;;;;;69.55;38.13;;;;;;;7.93;100.00;162639.38;5052330;28;20024;-59
2023/12/15 10:24:38;;;;;;;63.08;37.63;;;;;;;8.01;100.00;162658.22;5038306;28;20530;-59
2023/12/15 10:27:08;;;;;;;72.95;40.05;;;;;;;8.09;100.00;162679.81;5032102;28;20036;-59
2023/12/15 10:29:36;;;;;;;75.00;38.85;;;;;;;8.02;100.00;162660.94;5030792;28;20120;-59
2023/12/15 10:32:01;;;;;;;60.75;35.15;;;;;;;8.02;100.00;162662.31;5032448;28;20021;-59
2023/12/15 10:34:27;;;;;;;61.50;36.80;;;;;;;8.04;100.00;162667.66;5030580;28;20075;-59
2023/12/15 10:36:53;;;;;;;74.68;36.53;;;;;;;8.01;100.00;162658.22;5032558;28;20086;-59
2023/12/15 10:39:19;;;;;;;62.08;37.15;;;;;;;8.06;100.00;162671.75;5031332;28;20033;-59
2023/12/15 10:41:45;;;;;;;65.53;37.08;;;;;;;8.06;100.00;162673.06;5032310;28;20044;-59
2023/12/15 10:44:13;;;;;;;66.85;35.15;;;;;;;8.16;100.00;162698.66;5030988;28;20042;-59
2023/12/15 10:46:43;;;;;;;60.50;33.40;;;;;;;8.09;100.00;162679.81;5032635;28;20045;-59
2023/12/15 10:49:10;;;;;;;75.22;35.88;;;;;;;8.17;100.00;162701.38;5030689;28;20056;-59
2023/12/15 10:51:39;;;;;;;53.70;30.73;;;;;;;8.23;100.00;162717.53;5031690;28;20037;-59
2023/12/15 10:54:06;;;;;;;51.67;30.90;;;;;;;8.23;100.00;162717.53;5030698;28;20037;-59